28FA weather

N Broward Medical Center Heliport
Pompano Beach, Florida, United States

Public forecast

Using degrees Fahrenheit for public forecast. Weather courtesy of forecast.io.

Closest aviation weather report (METAR) to N Broward Medical Center Heliport

Closest report is Pompano Beach Airpark, 2.0 nm (3.6 km) SSE. Retrieved 2019/10/14 13:53 UTC (33 minutes ago):

KPMP 141353Z 08004KT 10SM FEW028 SCT033 28/22 A3007 RMK AO2 SLP182 T02830217

Closest aviation forecast (TAF) to N Broward Medical Center Heliport

Closest forecast is Fort Lauderdale Executive Airport, 5.5 nm (10.2 km) SSW. Retrieved 2019/10/14 12:22 UTC (2 hours ago):

TAF KFXE 141120Z 1412/1512 09005KT P6SM FEW030 SCT060 BKN250 FM141500 10010KT P6SM SCT025 BKN035 FM150000 08005KT P6SM FEW030 SCT060